Dardanelle, CA

11:20 AM PDT on September 22, 2014 (GMT -0700)
MCMWTC BRIDGEPORT, CA | Change Station
CLOSE
Current Station
Airport
Location: MCMWTC BRIDGEPORT, CA,
Elevation: 6745 ft
Nearby Weather Stations

Elev 6745 ft 38.36 °N, 119.52 °W | Updated 28 minutes ago

Clear
Clear
69 °F
Feels Like 69 °F
N
0
Wind Variable Wind from North

Today
High -- | Low -- °F
--% Chance of Precip.
Yesterday
High -- | Low -- °F
Precip. -- in
6:47 AM 6:56 PM
Waning Crescent, 2% visible
Pressure 29.98 in
Visibility -9999.0 miles
Clouds Clear
Dew Point 23 °F
Humidity 18%
Rainfall 0.00 in
Snow Depth 0 in , 0 in , 0 in
UV 7 out of 12
Pollen 6.70 out of 12
Ozone Good
PM2.5 Very Unhealthy
Flu Activity Not available.
METAR KBAN 221752Z AUTO 00000KT CLR 21/M05 A3025 RMK AO2 SLP152 T02061050 10206 20011 58010 $

More Conditions Fewer Conditions

Pressure 29.98 in
Visibility -9999.0 miles
Clouds Clear
Dew Point 23 °F
Humidity 18%
Rainfall 0.00 in
Snow Depth 0 in , 0 in , 0 in
UV 7 out of 12
Pollen 6.70 out of 12
Ozone Good
PM2.5 Very Unhealthy
Flu Activity Not available.
METAR KBAN 221752Z AUTO 00000KT CLR 21/M05 A3025 RMK AO2 SLP152 T02061050 10206 20011 58010 $

More Conditions Fewer Conditions

10-Day Weather Forecast

Almanac

Astronomy

Sep. 22, 2014 Rise Set
Actual Time 6:47 AM PDT 6:56 PM PDT
Civil Twilight 6:20 AM PDT 7:22 PM PDT
Nautical Twilight 5:49 AM PDT 7:53 PM PDT
Astronomical Twilight 5:18 AM PDT 8:24 PM PDT
Moon 5:21 AM PDT 6:05 PM PDT
Length of Visible Light 13h 01m
Length of Day
12h 09m
Tomorrow will be 2m 27s shorter.
Waning Crescent, 2% of the Moon is Illuminated
Today
Waning Crescent
Sep 24
New
Oct 1
First Quarter
Oct 8
Full
Oct 15
Last Quarter

Today's Extremes

State Highs State Lows

Community

WunderPhotos

Upload Photos

1,755,506 photos uploaded!

WunderBlogs® & News

By Dr. Jeff Masters
Director of Meteorology, Weather Underground
By Kari Strenfel
Meteorologist, Weather Underground
By Christopher C. Burt
Weather Historian, Weather Underground
September 22, 2014
September 22, 2014
September 22, 2014

Nearby

Air Quality

  Air Quality AQ Index Pollutant
Yesterday Very Unhealthy
PM2.5
Yesterday Good
OZONE
Current Very Unhealthy
PM2.5
Current Good
OZONE

Snow Depth

Station Depth Elevation
Summit Meadow 0 in 9122 ft
Adin Mountain 0 in 6200 ft
CSS Lab 0 in 6900 ft
Spratt Creek 1 in 6200 ft
Fallen Leaf 0 in 6300 ft

Earthquake Activity

City Distance Mag. Time & Date
Gabbs, Nevada 102 miles 3.3 4:37 AM PDT
2014-09-19
Livermore, California 112 miles 2.6 3:37 AM PDT
2014-09-19
Minimum magnitude displayed is 2.5.

Coastal Water Temperatures

Place Temperature
No Stations Reporting

Nearby Weather Stations